sensor_id;sensor_type;location;lat;lon;timestamp;P1;durP1;ratioP1;P2;durP2;ratioP2
83115;SDS011;72996;40.206;44.498;2024-03-08T00:02:06;12.80;;;6.45;;
83115;SDS011;72996;40.206;44.498;2024-03-08T00:04:32;16.13;;;8.38;;
83115;SDS011;72996;40.206;44.498;2024-03-08T00:06:57;16.25;;;8.80;;
83115;SDS011;72996;40.206;44.498;2024-03-08T00:09:23;17.90;;;8.98;;
83115;SDS011;72996;40.206;44.498;2024-03-08T00:11:49;16.25;;;9.80;;
83115;SDS011;72996;40.206;44.498;2024-03-08T00:14:16;17.92;;;10.07;;
83115;SDS011;72996;40.206;44.498;2024-03-08T00:16:41;18.33;;;10.20;;
83115;SDS011;72996;40.206;44.498;2024-03-08T00:19:09;19.13;;;9.55;;
83115;SDS011;72996;40.206;44.498;2024-03-08T00:21:35;18.15;;;9.07;;
83115;SDS011;72996;40.206;44.498;2024-03-08T00:24:01;13.27;;;8.23;;
83115;SDS011;72996;40.206;44.498;2024-03-08T00:26:26;12.40;;;7.57;;
83115;SDS011;72996;40.206;44.498;2024-03-08T00:28:53;12.15;;;6.82;;
83115;SDS011;72996;40.206;44.498;2024-03-08T00:31:19;16.08;;;7.35;;
83115;SDS011;72996;40.206;44.498;2024-03-08T00:33:45;12.25;;;6.85;;
83115;SDS011;72996;40.206;44.498;2024-03-08T00:36:11;14.65;;;6.93;;
83115;SDS011;72996;40.206;44.498;2024-03-08T00:38:37;12.07;;;5.85;;
83115;SDS011;72996;40.206;44.498;2024-03-08T00:41:02;12.82;;;5.72;;
83115;SDS011;72996;40.206;44.498;2024-03-08T00:43:28;10.38;;;5.47;;
83115;SDS011;72996;40.206;44.498;2024-03-08T00:45:55;9.77;;;5.60;;
83115;SDS011;72996;40.206;44.498;2024-03-08T00:48:23;11.25;;;5.72;;
83115;SDS011;72996;40.206;44.498;2024-03-08T00:50:49;12.45;;;6.22;;
83115;SDS011;72996;40.206;44.498;2024-03-08T00:53:15;10.57;;;5.72;;
83115;SDS011;72996;40.206;44.498;2024-03-08T00:55:42;14.82;;;6.82;;
83115;SDS011;72996;40.206;44.498;2024-03-08T00:58:07;15.60;;;7.18;;
83115;SDS011;72996;40.206;44.498;2024-03-08T01:00:34;19.10;;;8.43;;
83115;SDS011;72996;40.206;44.498;2024-03-08T01:03:00;23.48;;;9.68;;
83115;SDS011;72996;40.206;44.498;2024-03-08T01:05:26;23.67;;;8.95;;
83115;SDS011;72996;40.206;44.498;2024-03-08T01:07:51;19.77;;;8.77;;
83115;SDS011;72996;40.206;44.498;2024-03-08T01:10:17;20.52;;;8.38;;
83115;SDS011;72996;40.206;44.498;2024-03-08T01:12:50;18.08;;;7.78;;
83115;SDS011;72996;40.206;44.498;2024-03-08T01:15:16;20.23;;;8.50;;
83115;SDS011;72996;40.206;44.498;2024-03-08T01:17:41;24.65;;;9.70;;
83115;SDS011;72996;40.206;44.498;2024-03-08T01:20:09;20.83;;;8.13;;
83115;SDS011;72996;40.206;44.498;2024-03-08T01:22:37;18.17;;;9.38;;
83115;SDS011;72996;40.206;44.498;2024-03-08T01:25:04;24.17;;;8.90;;
83115;SDS011;72996;40.206;44.498;2024-03-08T01:27:30;20.40;;;8.63;;
83115;SDS011;72996;40.206;44.498;2024-03-08T01:29:56;19.33;;;8.45;;
83115;SDS011;72996;40.206;44.498;2024-03-08T01:34:50;19.05;;;7.95;;
83115;SDS011;72996;40.206;44.498;2024-03-08T01:37:16;17.20;;;8.40;;
83115;SDS011;72996;40.206;44.498;2024-03-08T01:39:41;17.27;;;7.88;;
83115;SDS011;72996;40.206;44.498;2024-03-08T01:42:07;16.67;;;7.85;;
83115;SDS011;72996;40.206;44.498;2024-03-08T01:44:33;18.40;;;7.88;;
83115;SDS011;72996;40.206;44.498;2024-03-08T01:46:59;20.95;;;8.48;;
83115;SDS011;72996;40.206;44.498;2024-03-08T01:49:26;16.65;;;8.02;;
83115;SDS011;72996;40.206;44.498;2024-03-08T01:51:53;19.83;;;7.82;;
83115;SDS011;72996;40.206;44.498;2024-03-08T01:54:21;17.48;;;8.18;;
83115;SDS011;72996;40.206;44.498;2024-03-08T01:56:48;21.13;;;8.15;;
83115;SDS011;72996;40.206;44.498;2024-03-08T01:59:14;18.65;;;7.57;;
83115;SDS011;72996;40.206;44.498;2024-03-08T02:01:41;21.60;;;7.97;;
83115;SDS011;72996;40.206;44.498;2024-03-08T02:04:08;19.63;;;7.85;;
83115;SDS011;72996;40.206;44.498;2024-03-08T02:06:34;19.60;;;8.18;;
83115;SDS011;72996;40.206;44.498;2024-03-08T02:09:00;18.30;;;7.38;;
83115;SDS011;72996;40.206;44.498;2024-03-08T02:11:31;17.20;;;7.60;;
83115;SDS011;72996;40.206;44.498;2024-03-08T02:13:58;18.55;;;7.63;;
83115;SDS011;72996;40.206;44.498;2024-03-08T02:16:24;19.42;;;7.65;;
83115;SDS011;72996;40.206;44.498;2024-03-08T02:18:49;15.95;;;7.10;;
83115;SDS011;72996;40.206;44.498;2024-03-08T02:21:16;12.40;;;5.63;;
83115;SDS011;72996;40.206;44.498;2024-03-08T02:23:46;12.75;;;5.28;;
83115;SDS011;72996;40.206;44.498;2024-03-08T02:26:12;13.63;;;5.70;;
83115;SDS011;72996;40.206;44.498;2024-03-08T02:28:38;13.38;;;5.95;;
83115;SDS011;72996;40.206;44.498;2024-03-08T02:31:04;11.35;;;5.30;;
83115;SDS011;72996;40.206;44.498;2024-03-08T02:33:33;11.93;;;4.53;;
83115;SDS011;72996;40.206;44.498;2024-03-08T02:35:59;13.80;;;5.80;;
83115;SDS011;72996;40.206;44.498;2024-03-08T02:38:25;12.68;;;5.22;;
83115;SDS011;72996;40.206;44.498;2024-03-08T02:40:51;17.88;;;5.97;;
83115;SDS011;72996;40.206;44.498;2024-03-08T02:43:18;14.10;;;6.00;;
83115;SDS011;72996;40.206;44.498;2024-03-08T02:45:45;14.57;;;4.85;;
83115;SDS011;72996;40.206;44.498;2024-03-08T02:48:12;14.25;;;4.32;;
83115;SDS011;72996;40.206;44.498;2024-03-08T02:50:41;12.40;;;4.85;;
83115;SDS011;72996;40.206;44.498;2024-03-08T02:53:10;12.75;;;5.47;;
83115;SDS011;72996;40.206;44.498;2024-03-08T02:55:38;14.48;;;5.00;;
83115;SDS011;72996;40.206;44.498;2024-03-08T02:58:05;12.20;;;4.82;;
83115;SDS011;72996;40.206;44.498;2024-03-08T03:00:36;9.98;;;4.72;;
83115;SDS011;72996;40.206;44.498;2024-03-08T03:03:02;13.55;;;5.05;;
83115;SDS011;72996;40.206;44.498;2024-03-08T03:05:28;15.73;;;5.22;;
83115;SDS011;72996;40.206;44.498;2024-03-08T03:07:55;17.70;;;9.38;;
83115;SDS011;72996;40.206;44.498;2024-03-08T03:10:21;16.77;;;6.00;;
83115;SDS011;72996;40.206;44.498;2024-03-08T03:12:47;15.45;;;6.00;;
83115;SDS011;72996;40.206;44.498;2024-03-08T03:15:16;11.45;;;5.32;;
83115;SDS011;72996;40.206;44.498;2024-03-08T03:18:01;13.05;;;5.32;;
83115;SDS011;72996;40.206;44.498;2024-03-08T03:20:26;13.63;;;5.80;;
83115;SDS011;72996;40.206;44.498;2024-03-08T03:22:57;12.82;;;5.35;;
83115;SDS011;72996;40.206;44.498;2024-03-08T03:25:26;11.70;;;5.50;;
83115;SDS011;72996;40.206;44.498;2024-03-08T03:30:23;15.35;;;7.65;;
83115;SDS011;72996;40.206;44.498;2024-03-08T03:32:51;19.98;;;8.27;;
83115;SDS011;72996;40.206;44.498;2024-03-08T03:35:19;23.42;;;9.75;;
83115;SDS011;72996;40.206;44.498;2024-03-08T03:37:46;21.10;;;9.88;;
83115;SDS011;72996;40.206;44.498;2024-03-08T03:40:41;21.38;;;9.68;;
83115;SDS011;72996;40.206;44.498;2024-03-08T03:43:07;22.83;;;10.20;;
83115;SDS011;72996;40.206;44.498;2024-03-08T03:45:35;28.83;;;10.35;;
83115;SDS011;72996;40.206;44.498;2024-03-08T03:48:07;20.70;;;7.68;;
83115;SDS011;72996;40.206;44.498;2024-03-08T03:50:36;14.32;;;6.35;;
83115;SDS011;72996;40.206;44.498;2024-03-08T03:53:02;16.48;;;6.10;;
83115;SDS011;72996;40.206;44.498;2024-03-08T03:55:28;17.83;;;6.70;;
83115;SDS011;72996;40.206;44.498;2024-03-08T03:57:54;19.27;;;6.90;;
83115;SDS011;72996;40.206;44.498;2024-03-08T04:00:20;17.17;;;6.75;;
83115;SDS011;72996;40.206;44.498;2024-03-08T04:02:46;16.48;;;6.20;;
83115;SDS011;72996;40.206;44.498;2024-03-08T04:05:12;13.98;;;5.70;;
83115;SDS011;72996;40.206;44.498;2024-03-08T04:07:40;14.68;;;5.40;;
83115;SDS011;72996;40.206;44.498;2024-03-08T04:10:06;12.65;;;5.22;;
83115;SDS011;72996;40.206;44.498;2024-03-08T04:12:34;12.40;;;5.40;;
83115;SDS011;72996;40.206;44.498;2024-03-08T04:15:00;12.98;;;4.90;;
83115;SDS011;72996;40.206;44.498;2024-03-08T04:17:33;9.73;;;4.50;;
83115;SDS011;72996;40.206;44.498;2024-03-08T04:20:05;10.27;;;4.88;;
83115;SDS011;72996;40.206;44.498;2024-03-08T04:22:36;12.32;;;4.75;;
83115;SDS011;72996;40.206;44.498;2024-03-08T04:25:03;15.13;;;5.90;;
83115;SDS011;72996;40.206;44.498;2024-03-08T04:27:28;15.30;;;6.15;;
83115;SDS011;72996;40.206;44.498;2024-03-08T04:29:54;12.90;;;4.85;;
83115;SDS011;72996;40.206;44.498;2024-03-08T04:32:20;10.90;;;5.00;;
83115;SDS011;72996;40.206;44.498;2024-03-08T04:34:46;12.13;;;5.03;;
83115;SDS011;72996;40.206;44.498;2024-03-08T04:37:11;14.07;;;5.57;;
83115;SDS011;72996;40.206;44.498;2024-03-08T04:39:39;12.57;;;5.22;;
83115;SDS011;72996;40.206;44.498;2024-03-08T04:42:04;12.48;;;5.00;;
83115;SDS011;72996;40.206;44.498;2024-03-08T04:44:35;13.50;;;5.00;;
83115;SDS011;72996;40.206;44.498;2024-03-08T04:47:03;12.40;;;5.60;;
83115;SDS011;72996;40.206;44.498;2024-03-08T04:51:56;12.38;;;6.30;;
83115;SDS011;72996;40.206;44.498;2024-03-08T04:54:22;22.75;;;7.60;;
83115;SDS011;72996;40.206;44.498;2024-03-08T04:56:48;14.60;;;6.20;;
83115;SDS011;72996;40.206;44.498;2024-03-08T04:59:13;15.60;;;6.20;;
83115;SDS011;72996;40.206;44.498;2024-03-08T05:01:39;14.85;;;6.82;;
83115;SDS011;72996;40.206;44.498;2024-03-08T05:04:05;15.23;;;6.55;;
83115;SDS011;72996;40.206;44.498;2024-03-08T05:06:30;14.77;;;6.15;;
83115;SDS011;72996;40.206;44.498;2024-03-08T05:08:56;12.65;;;5.57;;
83115;SDS011;72996;40.206;44.498;2024-03-08T05:11:22;14.40;;;6.00;;
83115;SDS011;72996;40.206;44.498;2024-03-08T05:13:48;24.15;;;7.30;;
83115;SDS011;72996;40.206;44.498;2024-03-08T05:16:13;15.50;;;6.72;;
83115;SDS011;72996;40.206;44.498;2024-03-08T05:18:40;18.55;;;7.97;;
83115;SDS011;72996;40.206;44.498;2024-03-08T05:21:07;24.73;;;8.10;;
83115;SDS011;72996;40.206;44.498;2024-03-08T05:23:34;17.38;;;7.00;;
83115;SDS011;72996;40.206;44.498;2024-03-08T05:26:00;14.10;;;6.00;;
83115;SDS011;72996;40.206;44.498;2024-03-08T05:28:26;14.80;;;6.38;;
83115;SDS011;72996;40.206;44.498;2024-03-08T05:30:51;14.25;;;6.78;;
83115;SDS011;72996;40.206;44.498;2024-03-08T05:33:17;17.83;;;6.88;;
83115;SDS011;72996;40.206;44.498;2024-03-08T05:35:44;18.20;;;6.55;;
83115;SDS011;72996;40.206;44.498;2024-03-08T05:38:10;15.85;;;5.85;;
83115;SDS011;72996;40.206;44.498;2024-03-08T05:40:38;15.48;;;5.78;;
83115;SDS011;72996;40.206;44.498;2024-03-08T05:43:03;14.75;;;5.57;;
83115;SDS011;72996;40.206;44.498;2024-03-08T05:45:30;13.95;;;5.75;;
83115;SDS011;72996;40.206;44.498;2024-03-08T05:47:56;14.35;;;5.75;;
83115;SDS011;72996;40.206;44.498;2024-03-08T05:50:21;15.13;;;5.38;;
83115;SDS011;72996;40.206;44.498;2024-03-08T05:52:47;12.80;;;6.03;;
83115;SDS011;72996;40.206;44.498;2024-03-08T05:55:13;19.55;;;5.70;;
83115;SDS011;72996;40.206;44.498;2024-03-08T05:57:42;18.90;;;5.90;;
83115;SDS011;72996;40.206;44.498;2024-03-08T06:00:08;11.75;;;5.35;;
83115;SDS011;72996;40.206;44.498;2024-03-08T06:02:40;14.23;;;6.07;;
83115;SDS011;72996;40.206;44.498;2024-03-08T06:05:09;11.88;;;5.88;;
83115;SDS011;72996;40.206;44.498;2024-03-08T06:07:36;14.23;;;5.95;;
83115;SDS011;72996;40.206;44.498;2024-03-08T06:10:05;15.77;;;9.27;;
83115;SDS011;72996;40.206;44.498;2024-03-08T06:12:35;16.25;;;7.20;;
83115;SDS011;72996;40.206;44.498;2024-03-08T06:15:06;21.35;;;8.60;;
83115;SDS011;72996;40.206;44.498;2024-03-08T06:20:00;17.17;;;6.70;;
83115;SDS011;72996;40.206;44.498;2024-03-08T06:22:26;15.20;;;6.85;;
83115;SDS011;72996;40.206;44.498;2024-03-08T06:24:51;15.30;;;7.10;;
83115;SDS011;72996;40.206;44.498;2024-03-08T06:27:19;17.20;;;7.55;;
83115;SDS011;72996;40.206;44.498;2024-03-08T06:29:45;21.40;;;9.10;;
83115;SDS011;72996;40.206;44.498;2024-03-08T06:32:11;18.40;;;9.32;;
83115;SDS011;72996;40.206;44.498;2024-03-08T06:34:36;20.52;;;9.93;;
83115;SDS011;72996;40.206;44.498;2024-03-08T06:37:02;22.15;;;10.15;;
83115;SDS011;72996;40.206;44.498;2024-03-08T06:39:28;22.77;;;10.48;;
83115;SDS011;72996;40.206;44.498;2024-03-08T06:41:57;23.50;;;10.75;;
83115;SDS011;72996;40.206;44.498;2024-03-08T06:44:22;16.80;;;8.55;;
83115;SDS011;72996;40.206;44.498;2024-03-08T06:46:48;18.27;;;8.90;;
83115;SDS011;72996;40.206;44.498;2024-03-08T06:49:14;22.35;;;9.55;;
83115;SDS011;72996;40.206;44.498;2024-03-08T06:51:40;21.50;;;9.98;;
83115;SDS011;72996;40.206;44.498;2024-03-08T06:54:06;16.98;;;8.75;;
83115;SDS011;72996;40.206;44.498;2024-03-08T06:56:34;17.83;;;8.70;;
83115;SDS011;72996;40.206;44.498;2024-03-08T06:59:00;19.77;;;9.68;;
83115;SDS011;72996;40.206;44.498;2024-03-08T07:01:28;17.75;;;9.82;;
83115;SDS011;72996;40.206;44.498;2024-03-08T07:03:57;15.95;;;9.32;;
83115;SDS011;72996;40.206;44.498;2024-03-08T07:06:23;15.77;;;9.48;;
83115;SDS011;72996;40.206;44.498;2024-03-08T07:08:49;19.83;;;10.25;;
83115;SDS011;72996;40.206;44.498;2024-03-08T07:11:14;18.95;;;10.30;;
83115;SDS011;72996;40.206;44.498;2024-03-08T07:13:44;17.50;;;8.80;;
83115;SDS011;72996;40.206;44.498;2024-03-08T07:16:11;16.67;;;8.13;;
83115;SDS011;72996;40.206;44.498;2024-03-08T07:18:37;10.05;;;6.20;;
83115;SDS011;72996;40.206;44.498;2024-03-08T07:21:08;8.35;;;4.95;;
83115;SDS011;72996;40.206;44.498;2024-03-08T07:23:35;7.72;;;3.75;;
83115;SDS011;72996;40.206;44.498;2024-03-08T07:26:20;6.38;;;3.95;;
83115;SDS011;72996;40.206;44.498;2024-03-08T07:28:46;8.65;;;4.85;;
83115;SDS011;72996;40.206;44.498;2024-03-08T07:31:11;8.98;;;5.07;;
83115;SDS011;72996;40.206;44.498;2024-03-08T07:33:37;13.68;;;7.57;;
83115;SDS011;72996;40.206;44.498;2024-03-08T07:36:03;14.85;;;7.57;;
83115;SDS011;72996;40.206;44.498;2024-03-08T07:38:30;15.35;;;9.30;;
83115;SDS011;72996;40.206;44.498;2024-03-08T07:40:55;13.55;;;9.25;;
83115;SDS011;72996;40.206;44.498;2024-03-08T07:43:22;17.10;;;11.35;;
83115;SDS011;72996;40.206;44.498;2024-03-08T07:45:51;17.95;;;10.90;;
83115;SDS011;72996;40.206;44.498;2024-03-08T07:48:18;13.85;;;10.20;;
83115;SDS011;72996;40.206;44.498;2024-03-08T07:50:43;14.00;;;9.02;;
83115;SDS011;72996;40.206;44.498;2024-03-08T07:53:09;16.23;;;10.60;;
83115;SDS011;72996;40.206;44.498;2024-03-08T07:55:35;16.55;;;10.80;;
83115;SDS011;72996;40.206;44.498;2024-03-08T07:58:02;13.18;;;7.70;;
83115;SDS011;72996;40.206;44.498;2024-03-08T08:00:28;12.35;;;7.40;;
83115;SDS011;72996;40.206;44.498;2024-03-08T08:02:56;15.38;;;8.20;;
83115;SDS011;72996;40.206;44.498;2024-03-08T08:05:22;13.75;;;6.53;;
83115;SDS011;72996;40.206;44.498;2024-03-08T08:07:48;9.77;;;5.85;;
83115;SDS011;72996;40.206;44.498;2024-03-08T08:10:15;8.45;;;4.85;;
83115;SDS011;72996;40.206;44.498;2024-03-08T08:12:47;7.30;;;4.00;;
83115;SDS011;72996;40.206;44.498;2024-03-08T08:15:13;8.88;;;4.88;;
83115;SDS011;72996;40.206;44.498;2024-03-08T08:17:43;9.20;;;4.28;;
83115;SDS011;72996;40.206;44.498;2024-03-08T08:20:17;11.80;;;5.18;;
83115;SDS011;72996;40.206;44.498;2024-03-08T08:22:43;9.35;;;4.28;;
83115;SDS011;72996;40.206;44.498;2024-03-08T08:25:09;7.22;;;3.67;;
83115;SDS011;72996;40.206;44.498;2024-03-08T08:27:43;6.90;;;3.58;;
83115;SDS011;72996;40.206;44.498;2024-03-08T08:30:08;8.10;;;4.20;;
83115;SDS011;72996;40.206;44.498;2024-03-08T08:35:02;7.13;;;3.42;;
83115;SDS011;72996;40.206;44.498;2024-03-08T08:37:31;7.20;;;3.90;;
83115;SDS011;72996;40.206;44.498;2024-03-08T08:39:57;5.95;;;3.08;;
83115;SDS011;72996;40.206;44.498;2024-03-08T08:42:29;6.47;;;2.80;;
83115;SDS011;72996;40.206;44.498;2024-03-08T08:44:54;9.52;;;4.40;;
83115;SDS011;72996;40.206;44.498;2024-03-08T08:47:22;7.07;;;3.00;;
83115;SDS011;72996;40.206;44.498;2024-03-08T08:49:48;8.07;;;3.35;;
83115;SDS011;72996;40.206;44.498;2024-03-08T08:52:16;6.88;;;2.95;;
83115;SDS011;72996;40.206;44.498;2024-03-08T08:54:42;5.78;;;2.70;;
83115;SDS011;72996;40.206;44.498;2024-03-08T08:57:09;8.15;;;3.03;;
83115;SDS011;72996;40.206;44.498;2024-03-08T08:59:35;6.35;;;3.50;;
83115;SDS011;72996;40.206;44.498;2024-03-08T09:02:04;5.35;;;3.05;;
83115;SDS011;72996;40.206;44.498;2024-03-08T09:04:30;8.90;;;3.78;;
83115;SDS011;72996;40.206;44.498;2024-03-08T09:06:56;7.60;;;3.00;;
83115;SDS011;72996;40.206;44.498;2024-03-08T09:09:22;5.88;;;3.10;;
83115;SDS011;72996;40.206;44.498;2024-03-08T09:11:48;6.07;;;2.80;;
83115;SDS011;72996;40.206;44.498;2024-03-08T09:14:15;5.43;;;2.88;;
83115;SDS011;72996;40.206;44.498;2024-03-08T09:16:40;4.78;;;2.70;;
83115;SDS011;72996;40.206;44.498;2024-03-08T09:19:06;5.97;;;2.85;;
83115;SDS011;72996;40.206;44.498;2024-03-08T09:21:35;6.40;;;3.70;;
83115;SDS011;72996;40.206;44.498;2024-03-08T09:24:01;5.97;;;2.70;;
83115;SDS011;72996;40.206;44.498;2024-03-08T09:26:27;5.05;;;2.50;;
83115;SDS011;72996;40.206;44.498;2024-03-08T09:28:53;4.32;;;2.40;;
83115;SDS011;72996;40.206;44.498;2024-03-08T09:31:21;8.60;;;3.65;;
83115;SDS011;72996;40.206;44.498;2024-03-08T09:33:54;5.32;;;3.10;;
83115;SDS011;72996;40.206;44.498;2024-03-08T09:36:20;5.18;;;3.58;;
83115;SDS011;72996;40.206;44.498;2024-03-08T09:38:46;5.22;;;2.50;;
83115;SDS011;72996;40.206;44.498;2024-03-08T09:41:12;7.15;;;4.07;;
83115;SDS011;72996;40.206;44.498;2024-03-08T09:43:38;5.82;;;3.50;;
83115;SDS011;72996;40.206;44.498;2024-03-08T09:46:04;7.53;;;3.17;;
83115;SDS011;72996;40.206;44.498;2024-03-08T09:48:32;6.53;;;3.30;;
83115;SDS011;72996;40.206;44.498;2024-03-08T09:50:59;5.82;;;3.00;;
83115;SDS011;72996;40.206;44.498;2024-03-08T09:53:25;7.05;;;4.35;;
83115;SDS011;72996;40.206;44.498;2024-03-08T09:55:51;6.55;;;2.80;;
83115;SDS011;72996;40.206;44.498;2024-03-08T09:58:17;5.13;;;3.03;;
83115;SDS011;72996;40.206;44.498;2024-03-08T10:00:58;6.18;;;2.92;;
83115;SDS011;72996;40.206;44.498;2024-03-08T10:03:24;5.93;;;2.70;;
83115;SDS011;72996;40.206;44.498;2024-03-08T10:05:52;4.80;;;2.60;;
83115;SDS011;72996;40.206;44.498;2024-03-08T10:08:21;9.55;;;3.10;;
83115;SDS011;72996;40.206;44.498;2024-03-08T10:10:47;6.18;;;3.28;;
83115;SDS011;72996;40.206;44.498;2024-03-08T10:13:14;5.78;;;3.13;;
83115;SDS011;72996;40.206;44.498;2024-03-08T10:18:07;5.95;;;3.55;;
83115;SDS011;72996;40.206;44.498;2024-03-08T10:20:33;5.07;;;3.17;;
83115;SDS011;72996;40.206;44.498;2024-03-08T10:23:00;4.97;;;3.05;;
83115;SDS011;72996;40.206;44.498;2024-03-08T10:25:25;5.60;;;2.90;;
83115;SDS011;72996;40.206;44.498;2024-03-08T10:27:51;7.97;;;4.20;;
83115;SDS011;72996;40.206;44.498;2024-03-08T10:30:17;8.10;;;3.83;;
83115;SDS011;72996;40.206;44.498;2024-03-08T10:32:45;6.85;;;3.50;;
83115;SDS011;72996;40.206;44.498;2024-03-08T10:35:11;7.30;;;3.97;;
83115;SDS011;72996;40.206;44.498;2024-03-08T10:37:47;5.43;;;2.92;;
83115;SDS011;72996;40.206;44.498;2024-03-08T10:40:18;7.57;;;3.30;;
83115;SDS011;72996;40.206;44.498;2024-03-08T10:42:54;6.75;;;3.55;;
83115;SDS011;72996;40.206;44.498;2024-03-08T10:45:37;7.07;;;4.10;;
83115;SDS011;72996;40.206;44.498;2024-03-08T10:50:47;8.88;;;5.35;;
83115;SDS011;72996;40.206;44.498;2024-03-08T10:53:16;8.82;;;2.50;;
83115;SDS011;72996;40.206;44.498;2024-03-08T10:55:43;7.13;;;3.30;;
83115;SDS011;72996;40.206;44.498;2024-03-08T10:58:10;5.95;;;2.90;;
83115;SDS011;72996;40.206;44.498;2024-03-08T11:00:36;6.90;;;2.80;;
83115;SDS011;72996;40.206;44.498;2024-03-08T11:03:02;5.15;;;2.40;;
83115;SDS011;72996;40.206;44.498;2024-03-08T11:05:36;8.45;;;3.97;;
83115;SDS011;72996;40.206;44.498;2024-03-08T11:08:24;6.20;;;3.50;;
83115;SDS011;72996;40.206;44.498;2024-03-08T11:10:52;5.35;;;2.70;;
83115;SDS011;72996;40.206;44.498;2024-03-08T11:16:12;6.47;;;3.05;;
83115;SDS011;72996;40.206;44.498;2024-03-08T11:18:58;5.95;;;2.40;;
83115;SDS011;72996;40.206;44.498;2024-03-08T11:21:31;7.53;;;4.13;;
83115;SDS011;72996;40.206;44.498;2024-03-08T11:24:02;10.93;;;4.15;;
83115;SDS011;72996;40.206;44.498;2024-03-08T11:26:40;6.13;;;2.50;;
83115;SDS011;72996;40.206;44.498;2024-03-08T11:34:53;8.10;;;3.22;;
83115;SDS011;72996;40.206;44.498;2024-03-08T11:37:19;9.63;;;2.63;;
83115;SDS011;72996;40.206;44.498;2024-03-08T11:42:19;9.38;;;4.78;;
83115;SDS011;72996;40.206;44.498;2024-03-08T11:44:45;5.75;;;2.50;;
83115;SDS011;72996;40.206;44.498;2024-03-08T11:47:13;9.85;;;5.22;;
83115;SDS011;72996;40.206;44.498;2024-03-08T11:49:39;6.63;;;3.65;;
83115;SDS011;72996;40.206;44.498;2024-03-08T11:52:12;9.60;;;4.00;;
83115;SDS011;72996;40.206;44.498;2024-03-08T11:54:39;5.78;;;2.50;;
83115;SDS011;72996;40.206;44.498;2024-03-08T11:57:17;10.07;;;3.30;;
83115;SDS011;72996;40.206;44.498;2024-03-08T11:59:50;7.63;;;3.40;;
83115;SDS011;72996;40.206;44.498;2024-03-08T12:02:16;5.57;;;2.88;;
83115;SDS011;72996;40.206;44.498;2024-03-08T12:04:44;9.27;;;3.03;;
83115;SDS011;72996;40.206;44.498;2024-03-08T12:07:11;4.90;;;2.30;;
83115;SDS011;72996;40.206;44.498;2024-03-08T12:09:38;8.13;;;3.45;;
83115;SDS011;72996;40.206;44.498;2024-03-08T12:12:04;5.68;;;2.58;;
83115;SDS011;72996;40.206;44.498;2024-03-08T12:14:33;5.97;;;2.35;;
83115;SDS011;72996;40.206;44.498;2024-03-08T12:16:59;10.60;;;3.58;;
83115;SDS011;72996;40.206;44.498;2024-03-08T12:19:29;13.75;;;4.72;;
83115;SDS011;72996;40.206;44.498;2024-03-08T12:21:55;11.50;;;5.13;;
83115;SDS011;72996;40.206;44.498;2024-03-08T12:24:21;8.00;;;3.20;;
83115;SDS011;72996;40.206;44.498;2024-03-08T12:26:48;5.82;;;2.40;;
83115;SDS011;72996;40.206;44.498;2024-03-08T12:29:15;6.32;;;2.15;;
83115;SDS011;72996;40.206;44.498;2024-03-08T12:31:43;5.00;;;2.15;;
83115;SDS011;72996;40.206;44.498;2024-03-08T12:34:09;5.55;;;2.28;;
83115;SDS011;72996;40.206;44.498;2024-03-08T12:36:35;7.43;;;3.30;;
83115;SDS011;72996;40.206;44.498;2024-03-08T12:39:01;7.57;;;2.40;;
83115;SDS011;72996;40.206;44.498;2024-03-08T12:41:29;6.35;;;2.63;;
83115;SDS011;72996;40.206;44.498;2024-03-08T12:43:54;5.72;;;2.20;;
83115;SDS011;72996;40.206;44.498;2024-03-08T12:46:21;5.43;;;2.67;;
83115;SDS011;72996;40.206;44.498;2024-03-08T12:48:55;6.50;;;2.60;;
83115;SDS011;72996;40.206;44.498;2024-03-08T12:51:20;8.27;;;3.20;;
83115;SDS011;72996;40.206;44.498;2024-03-08T12:53:46;5.28;;;2.55;;
83115;SDS011;72996;40.206;44.498;2024-03-08T12:56:31;9.65;;;2.90;;
83115;SDS011;72996;40.206;44.498;2024-03-08T12:58:59;5.13;;;2.33;;
83115;SDS011;72996;40.206;44.498;2024-03-08T13:01:25;7.35;;;3.30;;
83115;SDS011;72996;40.206;44.498;2024-03-08T13:03:57;6.55;;;2.30;;
83115;SDS011;72996;40.206;44.498;2024-03-08T13:06:33;11.30;;;3.10;;
83115;SDS011;72996;40.206;44.498;2024-03-08T13:08:59;6.00;;;2.80;;
83115;SDS011;72996;40.206;44.498;2024-03-08T13:11:30;5.15;;;2.42;;
83115;SDS011;72996;40.206;44.498;2024-03-08T13:14:02;6.15;;;2.15;;
83115;SDS011;72996;40.206;44.498;2024-03-08T13:16:29;5.75;;;2.33;;
83115;SDS011;72996;40.206;44.498;2024-03-08T13:18:55;10.15;;;2.53;;
83115;SDS011;72996;40.206;44.498;2024-03-08T13:21:22;7.47;;;2.90;;
83115;SDS011;72996;40.206;44.498;2024-03-08T13:23:49;6.55;;;2.65;;
83115;SDS011;72996;40.206;44.498;2024-03-08T13:26:15;8.68;;;3.05;;
83115;SDS011;72996;40.206;44.498;2024-03-08T13:28:50;6.57;;;3.38;;
83115;SDS011;72996;40.206;44.498;2024-03-08T13:31:21;8.77;;;4.10;;
83115;SDS011;72996;40.206;44.498;2024-03-08T13:33:48;9.95;;;4.45;;
83115;SDS011;72996;40.206;44.498;2024-03-08T13:36:14;11.85;;;5.20;;
83115;SDS011;72996;40.206;44.498;2024-03-08T13:38:44;10.75;;;3.70;;
83115;SDS011;72996;40.206;44.498;2024-03-08T13:41:11;5.65;;;3.15;;
83115;SDS011;72996;40.206;44.498;2024-03-08T13:43:39;6.53;;;2.47;;
83115;SDS011;72996;40.206;44.498;2024-03-08T13:46:09;5.53;;;2.42;;
83115;SDS011;72996;40.206;44.498;2024-03-08T13:48:36;6.63;;;2.60;;
83115;SDS011;72996;40.206;44.498;2024-03-08T13:51:05;8.05;;;3.72;;
83115;SDS011;72996;40.206;44.498;2024-03-08T13:53:36;7.85;;;4.10;;
83115;SDS011;72996;40.206;44.498;2024-03-08T13:56:02;5.43;;;2.70;;
83115;SDS011;72996;40.206;44.498;2024-03-08T13:58:28;9.30;;;4.93;;
83115;SDS011;72996;40.206;44.498;2024-03-08T14:00:54;11.95;;;4.90;;
83115;SDS011;72996;40.206;44.498;2024-03-08T14:03:20;8.20;;;3.63;;
83115;SDS011;72996;40.206;44.498;2024-03-08T14:05:46;10.23;;;3.50;;
83115;SDS011;72996;40.206;44.498;2024-03-08T14:08:12;8.05;;;3.97;;
83115;SDS011;72996;40.206;44.498;2024-03-08T14:10:39;14.00;;;8.02;;
83115;SDS011;72996;40.206;44.498;2024-03-08T14:13:04;8.05;;;3.90;;
83115;SDS011;72996;40.206;44.498;2024-03-08T14:15:32;8.70;;;4.57;;
83115;SDS011;72996;40.206;44.498;2024-03-08T14:17:58;8.80;;;4.28;;
83115;SDS011;72996;40.206;44.498;2024-03-08T14:20:24;8.77;;;4.30;;
83115;SDS011;72996;40.206;44.498;2024-03-08T14:22:51;9.30;;;4.65;;
83115;SDS011;72996;40.206;44.498;2024-03-08T14:25:17;9.70;;;4.20;;
83115;SDS011;72996;40.206;44.498;2024-03-08T14:27:46;10.38;;;5.35;;
83115;SDS011;72996;40.206;44.498;2024-03-08T14:30:12;9.45;;;4.82;;
83115;SDS011;72996;40.206;44.498;2024-03-08T14:32:40;10.00;;;5.00;;
83115;SDS011;72996;40.206;44.498;2024-03-08T14:35:06;8.73;;;3.83;;
83115;SDS011;72996;40.206;44.498;2024-03-08T14:37:33;12.30;;;4.72;;
83115;SDS011;72996;40.206;44.498;2024-03-08T14:39:59;8.48;;;3.17;;
83115;SDS011;72996;40.206;44.498;2024-03-08T14:42:25;6.32;;;3.22;;
83115;SDS011;72996;40.206;44.498;2024-03-08T14:44:51;10.27;;;4.50;;
83115;SDS011;72996;40.206;44.498;2024-03-08T14:47:18;9.90;;;4.72;;
83115;SDS011;72996;40.206;44.498;2024-03-08T14:49:44;10.98;;;3.72;;
83115;SDS011;72996;40.206;44.498;2024-03-08T14:52:10;10.43;;;3.90;;
83115;SDS011;72996;40.206;44.498;2024-03-08T14:54:54;10.15;;;6.10;;
83115;SDS011;72996;40.206;44.498;2024-03-08T14:57:21;13.27;;;6.97;;